Time;durP1;ratioP1;P1;durP2;ratioP2;P2;SDS_P1;SDS_P2;PMS_P1;PMS_P2;Temp;Humidity;BMP_temperature;BMP_pressure;BME280_temperature;BME280_humidity;BME280_pressure;Samples;Min_cycle;Max_cycle;Signal;HPM_P1;HPM_P2
2022/09/20 00:01:27;;;;;;;2.22;0.75;;;11.10;95.00;;;;;;5055622;28;20124;-65
2022/09/20 00:03:55;;;;;;;4.43;0.75;;;11.00;95.30;;;;;;5055348;28;20132;-65
2022/09/20 00:06:24;;;;;;;2.20;0.50;;;10.70;95.30;;;;;;5055348;28;20508;-65
2022/09/20 00:08:50;;;;;;;4.85;1.02;;;10.70;95.40;;;;;;5054714;28;20493;-65
2022/09/20 00:11:21;;;;;;;3.55;0.90;;;10.80;95.50;;;;;;5055409;28;20047;-65
2022/09/20 00:13:49;;;;;;;0.68;0.50;;;10.80;95.70;;;;;;5055416;28;20496;-65
2022/09/20 00:16:19;;;;;;;5.28;0.50;;;10.70;95.90;;;;;;5055151;28;20544;-65
2022/09/20 00:18:52;;;;;;;2.95;0.80;;;10.70;95.60;;;;;;5054905;28;20536;-65
2022/09/20 00:21:21;;;;;;;5.40;0.95;;;10.60;95.60;;;;;;5054839;28;20068;-65
2022/09/20 00:23:47;;;;;;;3.60;0.63;;;10.60;95.60;;;;;;5054978;28;20041;-65
2022/09/20 00:26:13;;;;;;;1.45;0.55;;;10.70;96.00;;;;;;5054894;28;20079;-65
2022/09/20 00:28:42;;;;;;;3.50;1.08;;;10.60;95.90;;;;;;5054788;28;20049;-65
2022/09/20 00:31:09;;;;;;;3.47;0.73;;;10.60;95.80;;;;;;5054702;28;20507;-65
2022/09/20 00:36:19;;;;;;;5.57;0.70;;;10.50;95.90;;;;;;5054683;28;20090;-65
2022/09/20 00:38:45;;;;;;;7.15;0.90;;;10.50;95.90;;;;;;5054916;28;20520;-65
2022/09/20 00:41:11;;;;;;;0.93;0.30;;;10.30;96.30;;;;;;5054733;28;20052;-65
2022/09/20 00:43:42;;;;;;;4.65;0.70;;;10.40;96.40;;;;;;5054461;28;20048;-65
2022/09/20 00:46:31;;;;;;;2.40;0.60;;;10.40;96.20;;;;;;5054552;28;20111;-65
2022/09/20 00:49:20;;;;;;;3.65;0.60;;;10.40;96.40;;;;;;5048770;28;20076;-65
2022/09/20 00:51:54;;;;;;;2.28;0.55;;;10.40;96.40;;;;;;5054394;28;20551;-65
2022/09/20 00:54:21;;;;;;;3.42;0.50;;;10.40;96.50;;;;;;5054330;28;20052;-65
2022/09/20 00:56:47;;;;;;;3.58;0.68;;;10.30;96.10;;;;;;5054632;28;20119;-65
2022/09/20 00:59:16;;;;;;;7.07;1.10;;;10.20;96.40;;;;;;5054515;28;20518;-65
2022/09/20 01:01:45;;;;;;;2.83;0.63;;;10.10;96.30;;;;;;5051643;28;20122;-65
2022/09/20 01:04:13;;;;;;;5.97;0.73;;;10.20;96.20;;;;;;5035129;28;20053;-65
2022/09/20 01:06:41;;;;;;;4.50;0.73;;;10.30;96.30;;;;;;5031852;28;20151;-65
2022/09/20 01:09:07;;;;;;;3.33;0.70;;;10.20;96.60;;;;;;5032731;28;20124;-65
2022/09/20 01:11:35;;;;;;;2.45;0.70;;;10.20;96.50;;;;;;5034310;28;20112;-65
2022/09/20 01:14:00;;;;;;;2.50;0.80;;;10.20;96.40;;;;;;5034280;28;20068;-65
2022/09/20 01:16:29;;;;;;;1.67;0.50;;;10.20;96.70;;;;;;5034024;28;20069;-65
2022/09/20 01:19:03;;;;;;;4.07;0.73;;;10.20;96.80;;;;;;5033909;28;20050;-65
2022/09/20 01:21:30;;;;;;;4.45;0.98;;;10.00;96.80;;;;;;5034071;28;20037;-65
2022/09/20 01:24:08;;;;;;;4.68;0.75;;;10.00;96.40;;;;;;5034177;28;20047;-65
2022/09/20 01:27:04;;;;;;;1.90;0.60;;;10.10;96.50;;;;;;5034066;28;20072;-65
2022/09/20 01:29:49;;;;;;;5.30;0.80;;;10.20;96.40;;;;;;5033951;28;20056;-65
2022/09/20 01:32:20;;;;;;;7.53;0.82;;;10.20;96.30;;;;;;5033978;28;20125;-65
2022/09/20 01:34:53;;;;;;;;;;;10.20;96.30;;;;;;5034537;28;20041;-65
2022/09/20 01:37:25;;;;;;;1.88;0.57;;;10.10;96.30;;;;;;5033896;28;19959;-65
2022/09/20 01:39:59;;;;;;;2.20;0.80;;;10.20;96.50;;;;;;5033664;28;20367;-65
2022/09/20 01:42:35;;;;;;;3.60;1.05;;;10.10;96.70;;;;;;5033934;28;20517;-65
2022/09/20 01:45:18;;;;;;;3.83;0.63;;;10.10;96.20;;;;;;5033828;28;20046;-65
2022/09/20 01:48:02;;;;;;;4.03;0.65;;;10.10;96.90;;;;;;5033775;28;20501;-66
2022/09/20 01:51:06;;;;;;;1.35;0.68;;;10.00;96.90;;;;;;5033694;28;20042;-65
2022/09/20 01:53:55;;;;;;;1.52;0.50;;;10.00;96.90;;;;;;5033856;28;20029;-65
2022/09/20 01:57:06;;;;;;;6.43;0.70;;;10.00;97.00;;;;;;5040780;28;20036;-65
2022/09/20 01:59:59;;;;;;;3.22;0.60;;;10.00;96.90;;;;;;5037229;28;20032;-65
2022/09/20 02:02:36;;;;;;;1.73;0.85;;;10.00;97.00;;;;;;5053836;28;20041;-65
2022/09/20 02:05:33;;;;;;;2.92;0.55;;;9.80;97.40;;;;;;5053699;28;20051;-65
2022/09/20 02:08:12;;;;;;;2.15;0.68;;;9.70;97.60;;;;;;5051948;28;20048;-65
2022/09/20 02:11:05;;;;;;;4.43;0.50;;;9.70;97.80;;;;;;5053385;28;20045;-65
2022/09/20 02:13:39;;;;;;;7.03;1.00;;;9.60;97.80;;;;;;5053588;28;20071;-64
2022/09/20 02:16:30;;;;;;;1.98;0.43;;;9.60;97.60;;;;;;5052682;28;20048;-65
2022/09/20 02:19:10;;;;;;;2.17;0.30;;;9.60;97.80;;;;;;5057641;28;20071;-65
2022/09/20 02:21:53;;;;;;;6.30;0.68;;;9.60;98.20;;;;;;5056159;28;20122;-65
2022/09/20 02:24:38;;;;;;;5.05;0.70;;;9.60;98.10;;;;;;5057337;28;20056;-65
2022/09/20 02:27:32;;;;;;;3.22;0.50;;;9.70;97.90;;;;;;5057284;28;20501;-65
2022/09/20 02:30:28;;;;;;;3.63;0.57;;;9.60;97.90;;;;;;5057105;28;20033;-65
2022/09/20 02:33:02;;;;;;;6.63;1.30;;;9.60;98.00;;;;;;5057371;28;20073;-65
2022/09/20 02:36:07;;;;;;;3.63;0.63;;;9.50;98.20;;;;;;5057070;28;20037;-65
2022/09/20 02:38:55;;;;;;;4.78;0.88;;;9.50;98.80;;;;;;5056970;28;20032;-65
2022/09/20 02:41:56;;;;;;;2.42;0.70;;;9.40;98.60;;;;;;5051344;28;20029;-65
2022/09/20 02:44:45;;;;;;;3.83;0.70;;;9.30;98.90;;;;;;5056014;28;20119;-65
2022/09/20 02:47:36;;;;;;;2.58;0.70;;;9.40;99.10;;;;;;5055648;28;20049;-65
2022/09/20 02:50:21;;;;;;;2.33;0.50;;;9.20;98.90;;;;;;5057040;28;20052;-65
2022/09/20 02:52:46;;;;;;;6.28;0.65;;;9.30;99.10;;;;;;5056733;28;20037;-65
2022/09/20 02:55:17;;;;;;;3.90;0.57;;;9.30;99.00;;;;;;5056763;28;20037;-65
2022/09/20 02:58:30;;;;;;;4.53;0.80;;;9.30;99.30;;;;;;5056987;28;20118;-65
2022/09/20 03:01:15;;;;;;;2.33;0.80;;;9.30;99.00;;;;;;5019462;28;20289;-65
2022/09/20 03:04:18;;;;;;;3.33;0.90;;;9.20;99.00;;;;;;5056072;28;20470;-65
2022/09/20 03:07:05;;;;;;;3.05;0.50;;;9.30;99.00;;;;;;5055338;28;20068;-65
2022/09/20 03:10:00;;;;;;;2.33;0.57;;;9.30;99.00;;;;;;5056162;28;20068;-65
2022/09/20 03:12:36;;;;;;;3.55;0.80;;;9.40;99.50;;;;;;5055849;28;20060;-65
2022/09/20 03:15:21;;;;;;;3.53;0.88;;;9.30;99.60;;;;;;5056594;28;20045;-64
2022/09/20 03:17:59;;;;;;;1.08;0.50;;;9.20;99.50;;;;;;5056185;28;20759;-65
2022/09/20 03:21:03;;;;;;;1.25;0.30;;;9.20;99.70;;;;;;5056384;28;20029;-65
2022/09/20 03:24:01;;;;;;;2.42;0.40;;;9.10;99.90;;;;;;5014227;28;20038;-65
2022/09/20 03:26:47;;;;;;;3.47;0.43;;;9.10;99.80;;;;;;5056274;28;20136;-65
2022/09/20 03:29:15;;;;;;;5.85;0.90;;;9.10;99.90;;;;;;5055360;28;20536;-65
2022/09/20 03:31:47;;;;;;;2.03;0.80;;;9.10;99.90;;;;;;5055517;28;20033;-65
2022/09/20 03:34:30;;;;;;;4.60;0.70;;;9.10;99.90;;;;;;5055798;28;20041;-64
2022/09/20 03:37:01;;;;;;;4.20;0.70;;;9.10;99.90;;;;;;5055751;28;20567;-65
2022/09/20 03:40:09;;;;;;;1.95;0.63;;;9.00;99.90;;;;;;5055726;28;20036;-65
2022/09/20 03:42:41;;;;;;;1.98;0.60;;;8.90;99.90;;;;;;5018253;28;20053;-65
2022/09/20 03:45:52;;;;;;;2.25;0.70;;;9.00;99.90;;;;;;5054069;28;20397;-65
2022/09/20 03:48:21;;;;;;;2.85;0.73;;;9.00;99.90;;;;;;5050567;28;20102;-65
2022/09/20 03:50:59;;;;;;;3.65;0.63;;;9.20;99.90;;;;;;5055746;28;20044;-65
2022/09/20 03:53:38;;;;;;;3.20;0.88;;;9.00;99.90;;;;;;5055767;28;20049;-65
2022/09/20 03:56:14;;;;;;;2.90;0.60;;;9.10;99.90;;;;;;5055733;28;20127;-65
2022/09/20 03:58:44;;;;;;;3.85;0.90;;;9.00;99.90;;;;;;5055511;28;20500;-65
2022/09/20 04:01:44;;;;;;;8.18;0.85;;;8.90;99.90;;;;;;5055152;28;20067;-65
2022/09/20 04:04:37;;;;;;;6.00;0.88;;;8.90;99.90;;;;;;5038711;28;20045;-65
2022/09/20 04:07:15;;;;;;;2.83;0.80;;;9.00;99.90;;;;;;5054208;28;20040;-65
2022/09/20 04:10:02;;;;;;;3.83;0.52;;;9.10;99.90;;;;;;5054607;28;20068;-65
2022/09/20 04:12:55;;;;;;;4.43;0.90;;;9.10;99.90;;;;;;5055316;28;20056;-65
2022/09/20 04:15:58;;;;;;;3.13;0.70;;;9.10;99.90;;;;;;5054287;28;20041;-65
2022/09/20 04:18:56;;;;;;;3.00;0.77;;;9.00;99.90;;;;;;5055365;28;20047;-65
2022/09/20 04:21:25;;;;;;;2.97;0.75;;;9.00;99.90;;;;;;5055333;28;20033;-65
2022/09/20 04:24:04;;;;;;;5.20;0.57;;;9.00;99.90;;;;;;5055173;28;20040;-65
2022/09/20 04:26:33;;;;;;;3.63;0.68;;;9.00;99.90;;;;;;5052813;28;20447;-65
2022/09/20 04:29:07;;;;;;;5.10;0.77;;;9.00;99.90;;;;;;5053700;28;20581;-65
2022/09/20 04:32:02;;;;;;;6.63;0.75;;;8.90;99.90;;;;;;5054062;28;20037;-65
2022/09/20 04:37:26;;;;;;;2.85;1.00;;;8.90;99.90;;;;;;5054444;28;20044;-64
2022/09/20 04:40:18;;;;;;;7.20;0.85;;;9.00;99.90;;;;;;5053789;28;20041;-65
2022/09/20 04:43:08;;;;;;;2.33;0.70;;;8.90;99.90;;;;;;5054739;28;20045;-65
2022/09/20 04:45:52;;;;;;;3.83;0.75;;;8.90;99.90;;;;;;5054254;28;20041;-65
2022/09/20 04:48:30;;;;;;;3.47;1.00;;;9.00;99.90;;;;;;5053468;28;20132;-65
2022/09/20 04:51:16;;;;;;;4.72;0.77;;;9.10;99.90;;;;;;5053010;28;20515;-65
2022/09/20 04:54:02;;;;;;;2.50;0.50;;;8.90;99.90;;;;;;5068493;28;20045;-65
2022/09/20 04:57:04;;;;;;;4.07;0.60;;;9.00;99.90;;;;;;5053837;28;20035;-65
2022/09/20 05:00:04;;;;;;;2.47;0.63;;;9.00;99.90;;;;;;5053842;28;20036;-65
2022/09/20 05:02:53;;;;;;;3.40;0.75;;;9.00;99.90;;;;;;5052865;28;20072;-65
2022/09/20 05:05:38;;;;;;;4.90;0.60;;;9.10;99.90;;;;;;5045647;28;20037;-65
2022/09/20 05:08:29;;;;;;;4.97;0.77;;;9.20;99.90;;;;;;5038700;28;20053;-65
2022/09/20 05:11:12;;;;;;;5.55;0.88;;;9.20;99.90;;;;;;5034510;28;20029;-65
2022/09/20 05:14:02;;;;;;;6.63;0.57;;;9.30;99.90;;;;;;5030536;28;20053;-65
2022/09/20 05:17:02;;;;;;;2.33;0.65;;;9.20;99.90;;;;;;5032468;28;20099;-65
2022/09/20 05:19:54;;;;;;;1.25;0.60;;;9.20;99.90;;;;;;5032986;28;20469;-65
2022/09/20 05:22:54;;;;;;;6.53;0.93;;;9.20;99.90;;;;;;5036385;28;20147;-65
2022/09/20 05:25:35;;;;;;;3.45;0.75;;;9.20;99.90;;;;;;5033793;28;20466;-65
2022/09/20 05:28:05;;;;;;;;;;;9.30;99.90;;;;;;5034451;28;20489;-66
2022/09/20 05:30:53;;;;;;;2.60;0.70;;;9.10;99.90;;;;;;5033918;28;20387;-65
2022/09/20 05:33:58;;;;;;;5.40;0.90;;;9.00;99.90;;;;;;5031947;28;20053;-65
2022/09/20 05:36:55;;;;;;;6.85;0.98;;;9.10;99.90;;;;;;5032049;28;20414;-65
2022/09/20 05:39:47;;;;;;;7.10;0.65;;;9.10;99.90;;;;;;5032138;28;20494;-66
2022/09/20 05:42:18;;;;;;;4.50;0.52;;;9.00;99.90;;;;;;5046394;28;20044;-65
2022/09/20 05:44:59;;;;;;;4.25;0.63;;;9.00;99.90;;;;;;5050463;28;20049;-65
2022/09/20 05:47:37;;;;;;;10.57;0.77;;;9.00;99.90;;;;;;5050212;28;20139;-65
2022/09/20 05:50:27;;;;;;;1.65;0.57;;;9.10;99.90;;;;;;5050400;28;20033;-65
2022/09/20 05:53:14;;;;;;;2.25;0.43;;;9.10;99.90;;;;;;5055732;28;20041;-65
2022/09/20 05:55:55;;;;;;;1.70;0.80;;;9.10;99.90;;;;;;5057862;28;20477;-66
2022/09/20 05:58:46;;;;;;;3.15;0.82;;;9.10;99.90;;;;;;5073433;28;20562;-65
2022/09/20 06:01:18;;;;;;;5.10;0.68;;;9.00;99.90;;;;;;5058900;28;20045;-65
2022/09/20 06:03:47;;;;;;;8.77;0.82;;;9.00;99.90;;;;;;5060307;28;20478;-65
2022/09/20 06:06:39;;;;;;;5.47;0.60;;;9.00;99.90;;;;;;5060236;28;20419;-65
2022/09/20 06:09:26;;;;;;;3.40;0.70;;;9.10;99.90;;;;;;5060027;28;20107;-65
2022/09/20 06:12:16;;;;;;;5.60;1.67;;;9.10;99.90;;;;;;5060093;28;20032;-65
2022/09/20 06:15:03;;;;;;;5.18;0.70;;;9.30;99.90;;;;;;5058655;28;20048;-65
2022/09/20 06:17:35;;;;;;;8.07;1.55;;;9.30;99.90;;;;;;5059905;28;20044;-66
2022/09/20 06:20:28;;;;;;;3.83;0.65;;;9.50;99.90;;;;;;5060216;28;20040;-65
2022/09/20 06:22:57;;;;;;;1.48;0.50;;;9.90;99.90;;;;;;5059730;28;20064;-65
2022/09/20 06:25:44;;;;;;;4.97;0.75;;;10.10;99.90;;;;;;5058857;28;20389;-65
2022/09/20 06:28:21;;;;;;;2.33;0.80;;;10.70;99.90;;;;;;5059661;28;20045;-65
2022/09/20 06:30:49;;;;;;;1.73;0.43;;;10.70;99.90;;;;;;5059874;28;20041;-65
2022/09/20 06:33:16;;;;;;;3.83;0.57;;;10.80;99.90;;;;;;5060181;28;20489;-66
2022/09/20 06:35:51;;;;;;;6.20;0.70;;;10.90;99.90;;;;;;5059941;28;20079;-66
2022/09/20 06:41:39;;;;;;;8.10;0.63;;;11.70;99.90;;;;;;5060139;28;20109;-65
2022/09/20 06:44:05;;;;;;;5.07;0.95;;;12.10;99.10;;;;;;5060037;28;20571;-66
2022/09/20 06:46:35;;;;;;;3.45;0.50;;;12.00;98.40;;;;;;5060100;28;20077;-65
2022/09/20 06:49:02;;;;;;;6.20;1.15;;;12.00;98.20;;;;;;5059850;28;20049;-65
2022/09/20 06:51:34;;;;;;;3.33;0.68;;;12.10;98.20;;;;;;5059869;28;20086;-66
2022/09/20 06:54:00;;;;;;;1.60;0.40;;;12.40;97.60;;;;;;5059758;28;20033;-66
2022/09/20 06:56:30;;;;;;;3.95;0.90;;;12.50;97.50;;;;;;5059681;28;20044;-66
2022/09/20 06:58:56;;;;;;;4.28;0.50;;;12.50;96.80;;;;;;5059999;28;20033;-66
2022/09/20 07:01:22;;;;;;;2.60;0.55;;;12.30;96.50;;;;;;5060055;28;20044;-66
2022/09/20 07:03:48;;;;;;;7.88;1.15;;;12.40;96.90;;;;;;5056709;28;20048;-66
2022/09/20 07:06:18;;;;;;;1.33;0.50;;;12.60;96.90;;;;;;5056727;28;20405;-66
2022/09/20 07:08:47;;;;;;;6.25;0.73;;;12.90;96.90;;;;;;5056586;28;20423;-66
2022/09/20 07:11:15;;;;;;;8.32;0.73;;;13.10;96.30;;;;;;5056612;28;20071;-66
2022/09/20 07:13:42;;;;;;;5.75;0.75;;;12.90;96.20;;;;;;5056492;28;20664;-65
2022/09/20 07:16:15;;;;;;;5.65;0.80;;;13.00;95.80;;;;;;5056510;28;20489;-66
2022/09/20 07:18:41;;;;;;;4.55;0.70;;;13.20;96.70;;;;;;5056421;28;20080;-66
2022/09/20 07:21:18;;;;;;;1.90;0.57;;;12.90;96.20;;;;;;5056450;28;20456;-66
2022/09/20 07:23:44;;;;;;;5.30;0.50;;;13.50;96.30;;;;;;5056116;28;20037;-66
2022/09/20 07:26:25;;;;;;;3.70;0.95;;;13.50;95.40;;;;;;5056325;28;20401;-66
2022/09/20 07:28:52;;;;;;;2.53;0.93;;;13.50;94.80;;;;;;5056304;28;20081;-66
2022/09/20 07:31:21;;;;;;;3.83;0.63;;;13.70;95.40;;;;;;5056342;28;20044;-66
2022/09/20 07:33:47;;;;;;;3.15;0.40;;;13.60;94.00;;;;;;5056042;28;20033;-66
2022/09/20 07:36:13;;;;;;;6.22;0.90;;;13.60;94.80;;;;;;5054771;28;20045;-66
2022/09/20 07:38:40;;;;;;;1.55;0.60;;;14.00;94.50;;;;;;5056021;28;20044;-67
2022/09/20 07:41:08;;;;;;;3.90;0.47;;;13.90;94.80;;;;;;5056203;28;20047;-66
2022/09/20 07:43:34;;;;;;;4.10;1.20;;;13.40;93.40;;;;;;5055927;28;20043;-66
2022/09/20 07:46:00;;;;;;;1.52;0.60;;;13.50;94.20;;;;;;5055899;28;20037;-66
2022/09/20 07:48:31;;;;;;;3.50;0.50;;;13.70;93.80;;;;;;5055787;28;20080;-66
2022/09/20 07:51:15;;;;;;;3.00;0.50;;;14.00;94.20;;;;;;5056038;28;20526;-66
2022/09/20 07:53:41;;;;;;;6.95;0.90;;;13.70;93.60;;;;;;5055998;28;20109;-66
2022/09/20 07:56:12;;;;;;;4.68;0.60;;;13.50;93.70;;;;;;5055669;28;20512;-66
2022/09/20 07:58:38;;;;;;;1.50;0.68;;;13.70;94.10;;;;;;5055878;28;20045;-66
2022/09/20 08:01:09;;;;;;;1.45;0.40;;;13.90;93.90;;;;;;5054413;28;20392;-66
2022/09/20 08:03:35;;;;;;;3.30;0.60;;;13.60;93.60;;;;;;5055810;28;20036;-66
2022/09/20 08:06:04;;;;;;;2.30;0.73;;;13.70;94.20;;;;;;5055694;28;20036;-66
2022/09/20 08:08:35;;;;;;;1.98;0.50;;;13.70;94.20;;;;;;5055541;28;20425;-66
2022/09/20 08:11:10;;;;;;;6.68;0.50;;;13.90;94.00;;;;;;5054985;28;20094;-66
2022/09/20 08:13:37;;;;;;;5.93;1.10;;;14.10;94.40;;;;;;5055380;28;20044;-66
2022/09/20 08:16:06;;;;;;;1.95;0.55;;;14.40;93.90;;;;;;5055314;28;20033;-66
2022/09/20 08:18:33;;;;;;;2.47;0.38;;;14.30;93.90;;;;;;5055411;28;20538;-66
2022/09/20 08:21:05;;;;;;;1.65;0.63;;;14.10;94.00;;;;;;5055554;28;20048;-66
2022/09/20 08:23:34;;;;;;;1.27;0.50;;;14.60;94.00;;;;;;5055351;28;20123;-66
2022/09/20 08:26:01;;;;;;;1.58;0.88;;;14.80;93.60;;;;;;5055150;28;20090;-66
2022/09/20 08:28:28;;;;;;;6.00;0.93;;;14.60;93.00;;;;;;5055211;28;20045;-66
2022/09/20 08:31:04;;;;;;;4.38;0.77;;;14.60;93.30;;;;;;5055203;28;20033;-66
2022/09/20 08:33:30;;;;;;;2.53;0.70;;;14.50;93.10;;;;;;5055346;28;20094;-66
2022/09/20 08:35:56;;;;;;;3.28;0.95;;;14.60;93.20;;;;;;5055019;28;20500;-66
2022/09/20 08:38:26;;;;;;;4.90;1.23;;;14.40;92.60;;;;;;5054996;28;20032;-66
2022/09/20 08:41:13;;;;;;;1.43;0.67;;;14.80;93.00;;;;;;5053731;28;20053;-66
2022/09/20 08:43:55;;;;;;;1.65;0.57;;;14.70;92.80;;;;;;5055093;28;20048;-66
2022/09/20 08:46:49;;;;;;;3.58;0.75;;;15.20;99.90;;;;;;5054907;28;20045;-66
2022/09/20 08:49:28;;;;;;;1.25;0.40;;;15.10;92.30;;;;;;5053020;28;20140;-66
2022/09/20 08:51:57;;;;;;;2.15;0.73;;;15.20;92.40;;;;;;5054732;28;20044;-66
2022/09/20 08:54:24;;;;;;;3.35;0.60;;;14.70;91.90;;;;;;5054705;28;20044;-66
2022/09/20 08:56:51;;;;;;;3.17;0.65;;;14.80;92.60;;;;;;5053441;28;20040;-67
2022/09/20 08:59:20;;;;;;;2.60;0.60;;;15.10;92.40;;;;;;5054165;28;20048;-67
2022/09/20 09:01:48;;;;;;;4.63;1.17;;;;;;;;;;5054542;28;20134;-67
2022/09/20 09:04:17;;;;;;;1.45;0.60;;;15.50;91.80;;;;;;5054681;28;20174;-66
2022/09/20 09:06:44;;;;;;;5.53;0.75;;;15.40;92.10;;;;;;5054523;28;20114;-66
2022/09/20 09:09:23;;;;;;;3.17;0.47;;;15.40;91.90;;;;;;5054243;28;20407;-66
2022/09/20 09:11:50;;;;;;;1.95;0.60;;;15.40;91.70;;;;;;5054143;28;20040;-66
2022/09/20 09:14:47;;;;;;;3.00;0.70;;;15.30;91.30;;;;;;5052434;28;20528;-66
2022/09/20 09:17:16;;;;;;;3.00;0.80;;;15.40;91.80;;;;;;5038538;28;20081;-66
2022/09/20 09:20:09;;;;;;;4.30;0.60;;;15.40;91.30;;;;;;5032620;28;20098;-66
2022/09/20 09:22:41;;;;;;;2.03;0.50;;;15.10;91.00;;;;;;5029501;28;20494;-66
2022/09/20 09:25:33;;;;;;;2.17;0.98;;;15.20;91.20;;;;;;5034234;28;20037;-66
2022/09/20 09:28:13;;;;;;;3.55;1.02;;;15.30;91.60;;;;;;5033909;28;20057;-66
2022/09/20 09:30:41;;;;;;;3.35;0.50;;;15.40;91.30;;;;;;5034030;28;20037;-66
2022/09/20 09:33:26;;;;;;;2.60;0.73;;;15.30;90.70;;;;;;5034134;28;20037;-66
2022/09/20 09:36:02;;;;;;;2.30;0.60;;;15.40;91.30;;;;;;5034034;28;20037;-65
2022/09/20 09:38:37;;;;;;;0.68;0.25;;;15.50;91.10;;;;;;5034205;28;20088;-66
2022/09/20 09:41:07;;;;;;;3.88;1.02;;;15.80;90.70;;;;;;5034079;28;20049;-66
2022/09/20 09:43:39;;;;;;;3.35;0.80;;;15.60;91.00;;;;;;5034155;28;20049;-66
2022/09/20 09:46:25;;;;;;;8.30;1.33;;;15.60;90.60;;;;;;5034249;28;20504;-66
2022/09/20 09:49:17;;;;;;;1.35;0.40;;;15.50;90.90;;;;;;5033982;28;20049;-66
2022/09/20 09:52:06;;;;;;;1.15;0.50;;;15.60;91.20;;;;;;5034110;28;20132;-66
2022/09/20 09:54:37;;;;;;;2.25;0.73;;;16.20;91.30;;;;;;5024507;28;20120;-66
2022/09/20 09:57:24;;;;;;;2.80;0.40;;;16.00;90.80;;;;;;5033837;28;20048;-66
2022/09/20 10:00:14;;;;;;;2.42;0.73;;;16.30;91.30;;;;;;5033818;28;20462;-66
2022/09/20 10:02:59;;;;;;;1.67;0.63;;;16.20;91.10;;;;;;5033846;28;20073;-66
2022/09/20 10:05:43;;;;;;;2.25;0.88;;;16.30;90.60;;;;;;5061871;28;20044;-66
2022/09/20 10:08:27;;;;;;;3.65;0.80;;;15.70;89.60;;;;;;5053509;28;20045;-67
2022/09/20 10:11:00;;;;;;;1.55;0.43;;;16.00;90.20;;;;;;5053670;28;20451;-66
2022/09/20 10:13:52;;;;;;;3.22;0.82;;;16.10;90.40;;;;;;5053412;28;20534;-67
2022/09/20 10:16:36;;;;;;;4.53;0.63;;;15.70;88.50;;;;;;5033883;28;20033;-66
2022/09/20 10:19:26;;;;;;;5.45;1.40;;;15.80;88.70;;;;;;5068873;28;20098;-67
2022/09/20 10:22:17;;;;;;;2.60;0.50;;;16.10;88.40;;;;;;5053516;28;20037;-67
2022/09/20 10:24:55;;;;;;;2.72;0.43;;;15.90;85.30;;;;;;5053349;28;20309;-67
2022/09/20 10:27:29;;;;;;;2.10;0.47;;;16.10;88.80;;;;;;5053422;28;20041;-66
2022/09/20 10:30:01;;;;;;;2.83;0.60;;;16.60;89.10;;;;;;5053820;28;20041;-66
2022/09/20 10:32:39;;;;;;;2.55;0.55;;;16.60;89.00;;;;;;5053479;28;20037;-66
2022/09/20 10:35:39;;;;;;;2.38;0.52;;;16.50;89.20;;;;;;5053373;28;20048;-66
2022/09/20 10:38:15;;;;;;;0.52;0.30;;;16.20;86.40;;;;;;5053783;28;20393;-66
2022/09/20 10:44:08;;;;;;;1.17;0.37;;;16.00;84.60;;;;;;5057184;28;20570;-66
2022/09/20 10:47:09;;;;;;;1.65;0.40;;;16.20;85.20;;;;;;5054943;28;20771;-66
2022/09/20 10:49:41;;;;;;;;;;;16.30;84.20;;;;;;5057447;28;20041;-66
2022/09/20 10:52:28;;;;;;;4.75;0.60;;;16.40;84.20;;;;;;5056606;28;19986;-66
2022/09/20 10:55:30;;;;;;;0.77;0.45;;;16.40;86.40;;;;;;5057111;28;20044;-66
2022/09/20 10:58:06;;;;;;;2.13;0.50;;;16.50;88.60;;;;;;5056870;28;20045;-66
2022/09/20 11:01:19;;;;;;;1.08;0.60;;;16.60;87.70;;;;;;5057054;28;20075;-66
2022/09/20 11:04:20;;;;;;;4.70;0.60;;;16.40;86.30;;;;;;5014652;28;20128;-66
2022/09/20 11:07:02;;;;;;;3.58;0.77;;;16.30;86.70;;;;;;5013537;28;20455;-66
2022/09/20 11:09:37;;;;;;;1.05;0.60;;;16.40;88.00;;;;;;5049002;28;20052;-66
2022/09/20 11:12:15;;;;;;;2.55;0.70;;;16.20;87.50;;;;;;5055428;28;20086;-66
2022/09/20 11:14:58;;;;;;;3.88;0.60;;;16.50;88.50;;;;;;5056484;28;20481;-66
2022/09/20 11:17:32;;;;;;;3.28;0.70;;;16.50;88.10;;;;;;5056526;28;20052;-66
2022/09/20 11:20:14;;;;;;;3.10;0.52;;;16.40;86.30;;;;;;5056649;28;20488;-66
2022/09/20 11:22:47;;;;;;;4.72;0.82;;;16.50;86.70;;;;;;5072209;28;20119;-66
2022/09/20 11:25:15;;;;;;;2.85;0.40;;;16.50;86.70;;;;;;5056218;28;20045;-66
2022/09/20 11:28:23;;;;;;;2.58;0.60;;;16.60;87.00;;;;;;5056348;28;20041;-66
2022/09/20 11:31:12;;;;;;;3.83;0.70;;;16.70;87.30;;;;;;5014090;28;20069;-66
2022/09/20 11:33:48;;;;;;;1.65;0.45;;;16.50;86.10;;;;;;5056213;28;20408;-66
2022/09/20 11:36:27;;;;;;;1.83;0.57;;;16.30;85.30;;;;;;5056270;28;20045;-66
2022/09/20 11:39:04;;;;;;;2.42;0.55;;;16.30;84.90;;;;;;5056087;28;20071;-66
2022/09/20 11:41:31;;;;;;;2.40;0.60;;;16.50;86.60;;;;;;5055954;28;20057;-66
2022/09/20 11:44:09;;;;;;;1.40;0.82;;;16.40;85.50;;;;;;5055929;28;20036;-66
2022/09/20 11:47:03;;;;;;;4.60;1.42;;;16.60;85.70;;;;;;5056047;28;20102;-66
2022/09/20 11:49:49;;;;;;;2.45;0.55;;;16.60;86.70;;;;;;5055665;28;20045;-66
2022/09/20 11:52:25;;;;;;;5.38;0.60;;;16.90;87.50;;;;;;5055762;28;20041;-66
2022/09/20 11:55:09;;;;;;;3.13;0.50;;;16.70;87.50;;;;;;5055727;28;20052;-66
2022/09/20 11:57:36;;;;;;;2.97;0.50;;;16.70;87.80;;;;;;5055942;28;20037;-66
2022/09/20 12:00:06;;;;;;;3.63;0.50;;;16.90;88.80;;;;;;5055462;28;20052;-66
2022/09/20 12:02:47;;;;;;;1.33;0.50;;;16.80;87.70;;;;;;5035667;28;20479;-66
2022/09/20 12:05:40;;;;;;;3.30;0.55;;;17.20;86.40;;;;;;5035715;28;20060;-66
2022/09/20 12:08:30;;;;;;;3.38;0.60;;;17.50;87.80;;;;;;5035710;28;20049;-66
2022/09/20 12:11:03;;;;;;;5.20;0.63;;;17.50;87.50;;;;;;5035597;28;20111;-66
2022/09/20 12:13:31;;;;;;;3.03;0.55;;;17.30;87.20;;;;;;5035781;28;20069;-66
2022/09/20 12:16:04;;;;;;;5.93;0.88;;;17.20;88.00;;;;;;5035708;28;20045;-66
2022/09/20 12:18:46;;;;;;;2.50;0.43;;;17.10;87.80;;;;;;5035508;28;20485;-66
2022/09/20 12:21:15;;;;;;;3.22;0.60;;;17.60;88.60;;;;;;5035432;28;20072;-66
2022/09/20 12:23:44;;;;;;;4.22;0.85;;;17.30;87.20;;;;;;5035322;28;20037;-66
2022/09/20 12:26:14;;;;;;;5.03;0.47;;;17.20;87.70;;;;;;5035482;28;20095;-66
2022/09/20 12:29:00;;;;;;;1.45;0.38;;;16.90;87.40;;;;;;5035353;28;20057;-66
2022/09/20 12:31:32;;;;;;;1.20;0.30;;;17.10;87.20;;;;;;5035381;28;20045;-66
2022/09/20 12:34:10;;;;;;;3.55;0.52;;;17.30;87.40;;;;;;5035294;28;20033;-66
2022/09/20 12:36:45;;;;;;;3.03;0.40;;;17.30;86.30;;;;;;5035016;28;20136;-66
2022/09/20 12:39:11;;;;;;;1.95;0.60;;;17.40;88.40;;;;;;5034940;28;20049;-66
2022/09/20 12:42:01;;;;;;;2.38;0.20;;;17.20;85.90;;;;;;5050290;28;20393;-66
2022/09/20 12:44:36;;;;;;;1.92;0.65;;;17.40;88.00;;;;;;5050352;28;20044;-66
2022/09/20 12:47:10;;;;;;;3.55;0.60;;;17.40;86.00;;;;;;5034987;28;20116;-66
2022/09/20 12:52:49;;;;;;;1.15;0.50;;;17.60;88.40;;;;;;5034818;28;20075;-66
2022/09/20 12:55:49;;;;;;;0.88;0.40;;;17.50;86.30;;;;;;5034859;28;20405;-66
2022/09/20 12:58:14;;;;;;;2.00;0.30;;;17.40;86.40;;;;;;5034811;28;20041;-66
2022/09/20 13:00:54;;;;;;;1.02;0.65;;;17.40;86.60;;;;;;5034204;28;20053;-66
2022/09/20 13:03:43;;;;;;;2.17;0.60;;;17.30;86.50;;;;;;5034722;28;20042;-66
2022/09/20 13:06:10;;;;;;;1.88;0.70;;;17.40;87.20;;;;;;5050007;28;20485;-66
2022/09/20 13:09:03;;;;;;;1.88;0.50;;;17.20;87.00;;;;;;5034447;28;20136;-66
2022/09/20 13:11:41;;;;;;;1.27;0.50;;;17.50;87.60;;;;;;5034414;28;20103;-66
2022/09/20 13:14:18;;;;;;;4.07;0.82;;;17.40;87.30;;;;;;5034463;28;20124;-66
2022/09/20 13:17:12;;;;;;;2.65;0.50;;;17.40;86.00;;;;;;5034489;28;20033;-66
2022/09/20 13:19:49;;;;;;;4.05;0.68;;;17.60;86.20;;;;;;5034349;28;20471;-66
2022/09/20 13:22:40;;;;;;;6.22;1.20;;;17.30;86.10;;;;;;5046744;28;20036;-66
2022/09/20 13:25:13;;;;;;;3.28;0.40;;;17.40;86.30;;;;;;5032028;28;20064;-66
2022/09/20 13:28:01;;;;;;;3.20;0.65;;;17.40;87.00;;;;;;5032322;28;20076;-66
2022/09/20 13:30:32;;;;;;;1.65;0.50;;;17.70;87.50;;;;;;5033754;28;20045;-66
2022/09/20 13:33:20;;;;;;;4.47;0.60;;;17.70;86.70;;;;;;5034284;28;20120;-66
2022/09/20 13:35:48;;;;;;;0.90;0.40;;;17.40;85.30;;;;;;5032813;28;20102;-66
2022/09/20 13:38:23;;;;;;;3.17;0.60;;;17.40;86.00;;;;;;5033979;28;20041;-66
2022/09/20 13:40:51;;;;;;;3.10;0.65;;;17.40;86.40;;;;;;5049302;28;20461;-66
2022/09/20 13:43:31;;;;;;;1.55;0.55;;;17.70;86.40;;;;;;5033963;28;20125;-66
2022/09/20 13:46:07;;;;;;;2.65;0.55;;;17.60;86.50;;;;;;5033870;28;20045;-66
2022/09/20 13:48:33;;;;;;;1.70;0.63;;;17.40;86.30;;;;;;5051827;28;20084;-66
2022/09/20 13:50:59;;;;;;;1.40;0.65;;;17.60;85.80;;;;;;5053834;28;20097;-66
2022/09/20 13:53:27;;;;;;;6.10;0.77;;;17.40;85.60;;;;;;5053944;28;20447;-66
2022/09/20 13:55:54;;;;;;;2.58;0.40;;;17.30;85.20;;;;;;5053899;28;20087;-66
2022/09/20 13:58:34;;;;;;;3.60;0.65;;;17.40;85.80;;;;;;5053915;28;20037;-66
2022/09/20 14:01:08;;;;;;;1.15;0.43;;;17.40;86.00;;;;;;5052627;28;20448;-66
2022/09/20 14:03:35;;;;;;;3.92;0.38;;;17.60;86.50;;;;;;5053491;28;20033;-66
2022/09/20 14:06:10;;;;;;;1.58;0.50;;;17.50;87.10;;;;;;5053748;28;20037;-66